Time;durP1;ratioP1;P1;durP2;ratioP2;P2;SDS_P1;SDS_P2;PMS_P1;PMS_P2;Temp;Humidity;BMP_temperature;BMP_pressure;BME280_temperature;BME280_humidity;BME280_pressure;Samples;Min_cycle;Max_cycle;Signal;HPM_P1;HPM_P2
2022/01/13 00:01:02;;;;;;;130.18;23.13;;;5.20;99.90;;;3.63;100.00;102838.22;4906379;28;20034;-84
2022/01/13 00:03:28;;;;;;;151.23;23.67;;;5.20;99.90;;;3.64;100.00;102828.66;4879496;28;20056;-85
2022/01/13 00:05:54;;;;;;;151.68;25.20;;;5.20;99.90;;;3.64;100.00;102834.75;4897071;28;20116;-84
2022/01/13 00:08:31;;;;;;;155.75;24.45;;;;;;;3.67;100.00;102839.13;4863683;28;20026;-86
2022/01/13 00:10:57;;;;;;;137.70;24.02;;;5.30;99.90;;;3.67;100.00;102831.31;4902900;28;20099;-83
2022/01/13 00:13:32;;;;;;;146.52;23.67;;;5.30;99.90;;;3.69;100.00;102837.41;4904448;28;22486;-82
2022/01/13 00:22:28;;;;;;;140.25;20.88;;;5.30;99.90;;;3.72;100.00;102855.72;4885535;28;20542;-84
2022/01/13 00:25:03;;;;;;;141.82;23.23;;;;;;;3.73;100.00;102856.59;4859628;28;20047;-82
2022/01/13 00:27:30;;;;;;;146.50;22.73;;;;;;;3.74;100.00;102835.78;4852700;28;20039;-83
2022/01/13 00:30:13;;;;;;;139.57;24.08;;;5.30;99.90;;;3.74;100.00;102851.41;4847168;28;20032;-84
2022/01/13 00:32:48;;;;;;;149.60;24.67;;;;;;;3.73;100.00;102860.06;4878088;28;21530;-84
2022/01/13 00:35:14;;;;;;;170.63;26.08;;;5.90;99.90;;;3.76;100.00;102854.03;4913592;28;20042;-81
2022/01/13 00:37:50;;;;;;;;;;;;;;;;;;;;;
2022/01/13 00:40:16;;;;;;;183.48;25.48;;;5.30;99.90;;;3.76;100.00;102860.13;4945108;28;20486;-83
2022/01/13 00:42:42;;;;;;;180.27;27.25;;;5.40;99.90;;;3.79;100.00;102846.28;4898679;28;20410;-81
2022/01/13 00:45:18;;;;;;;197.00;26.00;;;;;;;3.81;100.00;102841.97;4901292;28;20092;-82
2022/01/13 00:47:44;;;;;;;179.63;26.13;;;;;;;3.77;100.00;102840.16;4911205;28;20033;-79
2022/01/13 00:50:11;;;;;;;204.18;27.23;;;5.40;99.90;;;3.78;100.00;102836.69;4993001;28;20117;-82
2022/01/13 00:52:47;;;;;;;190.45;27.27;;;;;;;3.79;100.00;102831.50;4924096;28;20065;-86
2022/01/13 00:55:20;;;;;;;228.25;28.38;;;;;;;3.80;100.00;102840.19;4952528;28;20111;-85
2022/01/13 00:57:49;;;;;;;219.88;28.02;;;;;;;3.77;100.00;102845.38;4924588;28;20035;-83
2022/01/13 01:00:16;;;;;;;224.65;28.77;;;;;;;3.83;100.00;102846.34;4886897;28;20041;-84
2022/01/13 01:02:43;;;;;;;298.83;61.83;;;5.40;99.90;;;3.85;100.00;102828.13;4894918;23;20042;-84
2022/01/13 01:05:32;;;;;;;687.33;279.58;;;;;;;3.87;100.00;102826.41;4904697;28;20100;-83
2022/01/13 01:07:58;;;;;;;271.55;31.65;;;5.50;99.90;;;3.88;100.00;102831.63;4857392;28;20030;-83
2022/01/13 01:10:26;;;;;;;246.90;31.63;;;5.50;99.90;;;3.89;100.00;102835.13;4852313;28;20031;-83
2022/01/13 01:13:11;;;;;;;259.73;31.65;;;5.50;99.90;;;3.93;100.00;102836.03;4900894;28;20033;-83
2022/01/13 01:15:44;;;;;;;292.33;30.67;;;5.50;99.90;;;3.94;100.00;102833.47;4878093;28;20430;-80
2022/01/13 01:31:47;;;;;;;222.15;30.17;;;5.50;99.90;;;4.02;100.00;102823.16;4900490;28;20061;-81
2022/01/13 01:37:19;;;;;;;208.32;29.73;;;;;;;4.08;100.00;102804.97;4907520;28;20058;-81
2022/01/13 01:39:59;;;;;;;223.95;31.08;;;5.60;99.90;;;4.10;100.00;102798.06;4878364;28;20077;-83
2022/01/13 01:42:27;;;;;;;233.52;30.48;;;5.70;99.90;;;4.11;100.00;102789.38;4898110;28;20061;-82
2022/01/13 01:45:06;;;;;;;252.73;31.60;;;5.70;99.90;;;4.15;100.00;102806.84;4920794;28;20026;-86
2022/01/13 01:47:43;;;;;;;251.00;33.55;;;5.70;99.90;;;4.15;100.00;102795.50;4933649;28;20041;-84
2022/01/13 01:50:23;;;;;;;255.35;32.35;;;5.70;99.90;;;4.18;100.00;102772.97;4882294;28;20031;-83
2022/01/13 01:52:59;;;;;;;261.52;35.40;;;5.70;99.90;;;4.17;100.00;102745.16;4869080;28;20031;-84
2022/01/13 01:55:25;;;;;;;254.98;34.20;;;5.70;99.90;;;4.19;100.00;102753.88;4877574;28;20110;-83
2022/01/13 01:57:52;;;;;;;284.90;33.88;;;;;;;4.19;100.00;102752.97;4889677;28;20031;-82
2022/01/13 02:00:27;;;;;;;224.63;32.83;;;5.80;99.90;;;4.18;100.00;102744.28;4876318;28;20046;-84
2022/01/13 02:02:55;;;;;;;239.23;32.58;;;5.70;99.90;;;4.22;100.00;102727.81;4844414;28;20110;-80
2022/01/13 02:05:21;;;;;;;306.52;34.25;;;5.80;99.90;;;4.20;100.00;102708.66;4875263;28;20113;-84
2022/01/13 02:07:47;;;;;;;262.48;32.83;;;5.80;99.90;;;4.24;100.00;102727.84;4855469;28;20040;-84
2022/01/13 02:10:22;;;;;;;258.58;33.35;;;;;;;4.25;100.00;102716.53;4843890;28;20024;-82
2022/01/13 02:13:00;;;;;;;244.65;31.67;;;;;;;4.25;100.00;102733.06;4866351;28;20043;-83
2022/01/13 02:18:06;;;;;;;236.23;31.65;;;;;;;4.33;100.00;102727.94;4832274;28;20026;-84
2022/01/13 02:20:49;;;;;;;207.43;30.02;;;5.90;99.90;;;4.30;100.00;102734.00;4883385;28;20050;-83
2022/01/13 02:23:32;;;;;;;215.35;30.85;;;5.90;99.90;;;4.31;100.00;102721.81;4904426;22;20743;-81
2022/01/13 02:26:09;;;;;;;194.65;28.30;;;;;;;4.31;100.00;102719.22;4872800;28;20114;-84
2022/01/13 02:28:35;;;;;;;188.73;27.30;;;5.90;99.90;;;4.34;100.00;102740.09;4940079;28;20032;-83
2022/01/13 02:31:12;;;;;;;164.70;25.52;;;;;;;4.37;100.00;102724.50;4931388;28;20042;-81
2022/01/13 02:34:04;;;;;;;160.27;25.00;;;5.90;99.90;;;4.37;100.00;102721.03;4904746;28;20052;-83
2022/01/13 02:36:33;;;;;;;148.05;25.48;;;;;;;4.42;100.00;102706.28;4856509;28;20036;-85
2022/01/13 02:39:10;;;;;;;181.45;27.65;;;6.00;99.90;;;4.47;100.00;102715.03;4916283;28;20066;-84
2022/01/13 02:41:36;;;;;;;162.13;25.20;;;;;;;4.48;100.00;102712.44;4871548;28;20029;-84
2022/01/13 02:44:17;;;;;;;149.75;24.73;;;6.00;99.90;;;4.49;100.00;102713.31;4890521;28;20038;-81
2022/01/13 02:47:07;;;;;;;151.70;24.80;;;;;;;4.51;100.00;102709.00;4864403;28;20118;-79
2022/01/13 02:49:33;;;;;;;130.73;23.05;;;6.00;99.90;;;4.50;100.00;102713.34;4887348;28;20035;-82
2022/01/13 02:52:14;;;;;;;152.50;24.20;;;;;;;4.52;100.00;102713.38;4878256;28;20733;-85
2022/01/13 02:54:43;;;;;;;142.18;24.92;;;;;;;4.53;100.00;102725.53;4912504;28;20108;-84
2022/01/13 02:57:32;;;;;;;135.25;22.70;;;;;;;4.56;100.00;102717.75;4885620;28;20039;-84
2022/01/13 02:59:59;;;;;;;156.75;22.90;;;6.10;99.90;;;4.57;100.00;102701.22;4905305;28;20083;-83
2022/01/13 03:02:30;;;;;;;131.75;23.77;;;;;;;4.60;100.00;102716.94;4862231;28;20049;-84
2022/01/13 03:05:02;;;;;;;135.88;25.17;;;;;;;4.59;100.00;102703.88;4866217;28;20045;-84
2022/01/13 03:07:33;;;;;;;125.80;23.23;;;;;;;4.60;100.00;102723.88;4903117;28;20231;-85
2022/01/13 03:10:03;;;;;;;144.90;24.23;;;;;;;4.63;100.00;102716.94;4916430;28;20083;-86
2022/01/13 03:12:36;;;;;;;149.80;25.15;;;;;;;4.64;100.00;102713.47;4855927;28;20321;-85
2022/01/13 03:15:25;;;;;;;132.15;23.23;;;6.20;99.90;;;4.65;100.00;102716.97;4864151;28;20026;-83
2022/01/13 03:17:52;;;;;;;150.48;24.60;;;;;;;4.67;100.00;102728.31;4875026;28;20031;-85
2022/01/13 03:20:18;;;;;;;153.38;24.70;;;6.20;99.90;;;4.70;100.00;102739.63;4874158;28;20057;-85
2022/01/13 03:22:54;;;;;;;135.85;24.23;;;;;;;4.71;100.00;102746.63;4907459;28;20041;-84
2022/01/13 03:25:22;;;;;;;122.93;21.73;;;6.20;99.90;;;4.65;100.00;102736.13;4904801;28;20508;-83
2022/01/13 03:28:13;;;;;;;147.48;24.60;;;;;;;4.68;100.00;102741.34;4888751;28;20101;-82
2022/01/13 03:30:39;;;;;;;149.95;25.15;;;6.20;99.90;;;4.68;100.00;102735.25;4887105;28;20196;-83
2022/01/13 03:33:08;;;;;;;141.55;25.33;;;6.20;99.90;;;4.71;100.00;102720.53;4872157;28;20023;-81
2022/01/13 03:35:43;;;;;;;136.73;24.85;;;6.30;99.90;;;4.72;100.00;102721.38;4863037;28;20034;-81
2022/01/13 03:38:09;;;;;;;139.47;22.83;;;6.30;99.90;;;4.74;100.00;102727.50;4848989;28;20059;-83
2022/01/13 03:40:44;;;;;;;132.48;23.67;;;6.30;99.90;;;4.78;100.00;102731.88;4874616;28;20039;-82
2022/01/13 03:43:16;;;;;;;121.15;23.63;;;6.30;99.90;;;4.80;100.00;102727.56;4870812;28;20039;-82
2022/01/13 03:45:51;;;;;;;130.35;24.38;;;;;;;4.77;100.00;102722.28;4878945;28;20427;-82
2022/01/13 03:48:17;;;;;;;104.85;21.83;;;6.30;99.90;;;4.77;100.00;102718.81;4858091;28;20035;-85
2022/01/13 03:50:53;;;;;;;129.43;24.83;;;6.30;99.90;;;4.77;100.00;102731.88;4828211;28;20173;-83
2022/01/13 03:53:31;;;;;;;104.05;22.67;;;6.30;99.90;;;4.77;100.00;102724.91;4868755;28;20031;-84
2022/01/13 03:57:02;;;;;;;128.45;23.27;;;6.30;99.90;;;4.78;100.00;102717.97;4943794;28;20035;-84
2022/01/13 04:00:12;;;;;;;89.13;18.92;;;6.30;99.90;;;4.74;100.00;102688.34;4908954;28;20680;-84
2022/01/13 04:02:41;;;;;;;104.00;20.40;;;6.30;99.90;;;4.78;100.00;102700.56;4847979;28;20036;-84
2022/01/13 04:05:07;;;;;;;92.30;18.63;;;6.30;99.90;;;4.80;100.00;102705.81;4864017;28;20034;-84
2022/01/13 04:07:40;;;;;;;94.22;21.15;;;6.30;99.90;;;4.78;100.00;102684.03;4893947;28;20038;-82
2022/01/13 04:10:50;;;;;;;106.40;20.75;;;6.30;99.90;;;4.78;100.00;102699.69;4837898;28;20279;-83
2022/01/13 04:13:45;;;;;;;67.80;17.95;;;6.30;99.90;;;4.77;100.00;102690.09;4886452;28;20097;-82
2022/01/13 04:16:02;;;;;;;72.32;17.50;;;;;;;4.78;100.00;102703.19;4907275;28;20042;-82
2022/01/13 04:18:54;;;;;;;65.50;16.35;;;;;;;4.80;100.00;102697.97;4877738;28;20158;-83
2022/01/13 04:21:33;;;;;;;62.17;17.30;;;6.30;99.90;;;4.79;100.00;102688.38;4855776;28;20070;-84
2022/01/13 04:24:12;;;;;;;61.80;15.73;;;6.40;99.90;;;4.82;100.00;102691.03;4897326;28;20271;-82
2022/01/13 04:26:43;;;;;;;67.35;16.40;;;6.40;99.90;;;4.85;100.00;102688.44;4909368;28;20098;-82
2022/01/13 04:29:27;;;;;;;70.43;19.25;;;;;;;4.83;100.00;102687.56;4854476;28;20059;-84
2022/01/13 04:32:00;;;;;;;50.38;13.95;;;6.40;99.90;;;4.79;100.00;102664.91;4915906;28;20108;-82
2022/01/13 04:34:27;;;;;;;60.47;17.40;;;6.40;99.90;;;4.82;100.00;102678.00;4859342;28;20039;-81
2022/01/13 04:37:15;;;;;;;57.28;16.90;;;6.40;99.90;;;4.81;100.00;102684.94;4886053;28;20026;-82
2022/01/13 04:39:41;;;;;;;40.83;13.40;;;6.40;99.90;;;4.82;100.00;102685.81;4862887;28;20042;-83
2022/01/13 04:42:10;;;;;;;49.05;14.60;;;6.40;99.90;;;4.86;100.00;102684.97;4880525;28;20039;-82
2022/01/13 04:44:45;;;;;;;47.38;14.10;;;;;;;4.84;100.00;102684.09;4889237;28;20034;-82
2022/01/13 04:47:11;;;;;;;42.65;13.20;;;6.40;99.90;;;4.85;100.00;102696.28;4875537;28;20129;-81
2022/01/13 04:49:37;;;;;;;29.63;11.30;;;;;;;4.80;100.00;102703.19;4868536;28;20032;-83
2022/01/13 04:52:03;;;;;;;32.80;12.00;;;;;;;4.79;100.00;102711.88;4909942;28;20061;-82
2022/01/13 04:54:38;;;;;;;43.10;14.40;;;;;;;4.83;100.00;102704.09;4857434;28;20516;-82
2022/01/13 04:57:23;;;;;;;38.38;12.15;;;6.40;99.90;;;4.73;100.00;102687.47;4884829;28;20160;-81
2022/01/13 05:00:01;;;;;;;32.83;11.00;;;;;;;4.75;100.00;102705.75;4849465;28;20047;-83
2022/01/13 05:02:27;;;;;;;31.85;11.70;;;6.40;99.90;;;4.79;100.00;102688.38;4878546;28;20131;-82
2022/01/13 05:05:01;;;;;;;44.13;13.30;;;6.40;99.90;;;4.82;100.00;102675.38;4872951;28;20473;-82
2022/01/13 05:07:31;;;;;;;38.10;12.40;;;;;;;4.81;100.00;102678.84;4878497;28;20042;-83
2022/01/13 05:10:06;;;;;;;45.35;14.10;;;;;;;4.83;100.00;102677.13;4867064;28;20038;-83
2022/01/13 05:12:39;;;;;;;36.75;12.20;;;6.40;99.90;;;4.85;100.00;102691.91;4887328;28;20166;-81
2022/01/13 05:15:18;;;;;;;51.38;15.63;;;6.40;99.90;;;4.84;100.00;102689.31;4844773;28;20109;-82
2022/01/13 05:20:50;;;;;;;55.47;15.90;;;6.50;99.90;;;4.88;100.00;102686.75;4867598;28;20049;-85
2022/01/13 05:23:28;;;;;;;43.38;14.85;;;6.40;99.90;;;4.85;100.00;102691.06;4882547;28;20057;-83
2022/01/13 05:25:54;;;;;;;44.58;14.02;;;;;;;4.85;100.00;102691.06;4860236;28;20096;-83
2022/01/13 05:28:43;;;;;;;37.10;12.88;;;6.40;99.90;;;4.86;100.00;102672.81;4866701;28;20058;-85
2022/01/13 05:31:12;;;;;;;53.25;16.15;;;;;;;4.93;100.00;102694.63;4856647;28;20491;-83
2022/01/13 05:33:38;;;;;;;49.67;14.75;;;6.50;99.90;;;4.93;100.00;102699.84;4860275;28;20046;-84
2022/01/13 05:36:13;;;;;;;52.17;16.05;;;6.50;99.90;;;4.92;100.00;102688.53;4876748;28;20053;-82
2022/01/13 05:38:43;;;;;;;45.85;13.52;;;;;;;4.98;100.00;102687.69;4880802;28;20467;-84
2022/01/13 05:41:17;;;;;;;46.08;14.05;;;6.50;99.90;;;5.02;100.00;102676.41;4880607;28;20054;-84
2022/01/13 05:43:44;;;;;;;42.03;14.32;;;;;;;5.00;100.00;102685.09;4882865;28;20117;-83
2022/01/13 05:46:10;;;;;;;56.05;15.60;;;;;;;5.04;100.00;102686.88;4886181;28;21377;-85
2022/01/13 05:48:47;;;;;;;31.95;12.30;;;6.60;99.90;;;5.05;100.00;102705.13;4908755;28;20113;-84
2022/01/13 05:51:12;;;;;;;32.13;10.20;;;6.60;99.90;;;5.02;100.00;102693.81;4876345;28;20118;-82
2022/01/13 05:53:39;;;;;;;43.53;13.48;;;6.60;99.90;;;5.06;100.00;102687.75;4841116;28;20905;-84
2022/01/13 05:56:14;;;;;;;32.35;11.63;;;6.60;99.90;;;5.10;100.00;102687.78;4861861;28;20065;-83
2022/01/13 05:58:41;;;;;;;44.05;14.93;;;;;;;5.11;100.00;102684.28;4880488;28;20053;-82
2022/01/13 06:01:07;;;;;;;49.45;14.55;;;6.70;99.90;;;5.11;100.00;102678.19;4876319;28;20053;-83
2022/01/13 06:03:42;;;;;;;51.53;14.90;;;;;;;5.11;100.00;102681.69;4866023;28;20529;-83
2022/01/13 06:06:08;;;;;;;32.72;11.32;;;6.60;99.90;;;5.11;100.00;102686.03;4850761;28;20117;-84
2022/01/13 06:08:35;;;;;;;35.33;12.40;;;6.70;99.90;;;5.09;100.00;102683.41;4901727;28;20033;-83
2022/01/13 06:11:10;;;;;;;35.28;12.25;;;6.60;99.90;;;5.06;100.00;102680.78;4887756;28;20399;-84
2022/01/13 06:13:36;;;;;;;23.48;9.18;;;;;;;5.08;100.00;102678.19;4857035;28;20042;-82
2022/01/13 06:16:02;;;;;;;29.55;10.60;;;6.70;99.90;;;5.14;100.00;102679.13;4874070;28;20054;-83
2022/01/13 06:18:40;;;;;;;43.28;12.77;;;;;;;5.16;100.00;102679.09;4855386;28;20050;-83
2022/01/13 06:21:06;;;;;;;42.20;13.45;;;6.70;99.90;;;5.18;100.00;102674.75;4931669;28;20034;-83
2022/01/13 06:23:41;;;;;;;42.83;13.13;;;6.70;99.90;;;5.19;100.00;102678.28;4887038;28;20187;-83
2022/01/13 06:26:09;;;;;;;41.50;13.30;;;6.70;99.90;;;5.21;100.00;102661.75;4852569;28;20035;-83
2022/01/13 06:28:35;;;;;;;24.88;9.80;;;6.80;99.90;;;5.21;100.00;102651.28;4888541;28;20031;-83
2022/01/13 06:31:08;;;;;;;32.83;12.45;;;6.80;99.90;;;5.22;100.00;102665.22;4874942;28;20033;-83
2022/01/13 06:33:34;;;;;;;35.63;11.48;;;6.80;99.90;;;5.22;100.00;102671.31;4959108;28;20035;-84
2022/01/13 06:36:13;;;;;;;31.02;11.18;;;6.80;99.90;;;5.24;100.00;102655.66;4942294;23;20054;-83
2022/01/13 06:38:39;;;;;;;38.03;12.20;;;6.80;99.90;;;5.27;100.00;102658.28;4945651;28;20113;-81
2022/01/13 06:41:05;;;;;;;36.83;11.98;;;6.80;99.90;;;5.28;100.00;102653.06;4981624;28;20417;-82
2022/01/13 06:43:33;;;;;;;39.42;13.50;;;6.80;99.90;;;5.30;100.00;102651.34;4892787;28;20037;-82
2022/01/13 06:46:02;;;;;;;41.90;13.23;;;6.80;99.90;;;5.31;100.00;102675.72;4912210;28;20027;-83
2022/01/13 06:48:28;;;;;;;34.30;11.63;;;6.80;99.90;;;5.31;100.00;102666.19;4879916;28;20047;-82
2022/01/13 06:50:55;;;;;;;46.78;14.02;;;6.90;99.90;;;5.34;100.00;102674.00;4943341;28;20093;-82
2022/01/13 06:53:21;;;;;;;30.70;10.63;;;6.90;99.90;;;5.33;100.00;102661.84;4941460;28;20030;-81
2022/01/13 06:55:47;;;;;;;39.08;13.23;;;6.90;99.90;;;5.36;100.00;102663.59;4954900;28;20037;-81
2022/01/13 06:58:17;;;;;;;19.75;8.07;;;6.90;99.90;;;5.35;100.00;102665.31;4941662;28;20083;-82
2022/01/13 07:00:46;;;;;;;45.20;13.90;;;6.90;99.90;;;5.39;100.00;102665.34;4926125;28;20046;-80
2022/01/13 07:03:13;;;;;;;33.53;13.30;;;6.90;99.90;;;5.43;100.00;102669.72;4918652;28;20022;-81
2022/01/13 07:05:39;;;;;;;38.60;12.55;;;6.90;99.90;;;5.42;100.00;102655.78;4994308;22;20104;-82
2022/01/13 07:08:15;;;;;;;46.80;13.63;;;6.90;99.90;;;5.44;100.00;102654.06;4948874;28;20018;-81
2022/01/13 07:10:41;;;;;;;;;;;7.00;99.90;;;5.38;100.00;102655.72;4941425;28;20031;-80
2022/01/13 07:13:07;;;;;;;41.20;12.87;;;6.90;99.90;;;5.41;100.00;102634.88;4953267;28;19913;-82
2022/01/13 07:15:37;;;;;;;38.38;12.82;;;6.90;99.90;;;5.41;100.00;102650.53;4946036;28;20042;-82
2022/01/13 07:18:03;;;;;;;36.17;11.38;;;6.90;99.90;;;5.40;100.00;102628.78;4920785;28;20494;-81
2022/01/13 07:20:29;;;;;;;41.50;12.40;;;7.00;99.90;;;5.43;100.00;102634.00;4939745;28;20042;-82
2022/01/13 07:22:55;;;;;;;39.20;12.43;;;6.90;99.90;;;5.43;100.00;102634.00;4941165;28;20382;-82
2022/01/13 07:25:21;;;;;;;43.08;13.85;;;7.00;99.90;;;5.47;100.00;102633.16;4973887;28;20071;-81
2022/01/13 07:27:47;;;;;;;38.10;12.07;;;7.00;99.90;;;5.48;100.00;102632.28;5001209;28;20095;-81
2022/01/13 07:30:22;;;;;;;48.85;14.10;;;7.00;99.90;;;5.51;100.00;102640.16;4987827;28;20133;-82
2022/01/13 07:32:51;;;;;;;30.27;11.93;;;7.00;99.90;;;5.52;100.00;102638.41;4887261;28;20027;-81
2022/01/13 07:35:26;;;;;;;27.73;9.43;;;7.00;99.90;;;5.52;100.00;102644.50;4911813;28;20952;-81
2022/01/13 07:37:52;;;;;;;22.53;8.90;;;7.00;99.90;;;5.47;100.00;102638.38;4927306;28;20033;-81
2022/01/13 07:40:18;;;;;;;34.25;12.75;;;7.10;99.90;;;5.53;100.00;102638.41;4959810;28;20317;-81
2022/01/13 07:42:48;;;;;;;29.25;11.23;;;7.10;99.90;;;5.55;100.00;102634.06;4913201;28;20045;-81
2022/01/13 07:45:18;;;;;;;35.63;12.05;;;7.10;99.90;;;5.57;100.00;102623.59;4970733;28;20036;-81
2022/01/13 07:47:44;;;;;;;32.47;12.05;;;7.10;99.90;;;5.59;100.00;102616.66;4984651;28;21461;-81
2022/01/13 07:50:13;;;;;;;46.15;14.30;;;7.10;99.90;;;5.60;100.00;102607.09;4933053;28;20034;-81
2022/01/13 07:52:43;;;;;;;33.97;12.80;;;7.10;99.90;;;5.59;100.00;102598.34;4955124;28;20120;-81
2022/01/13 07:55:11;;;;;;;41.35;12.35;;;7.10;99.90;;;5.61;100.00;102606.22;4961873;28;20506;-81
2022/01/13 07:57:38;;;;;;;39.58;12.27;;;7.20;99.90;;;5.67;100.00;102608.84;4927918;28;20037;-81
2022/01/13 08:00:15;;;;;;;34.25;12.30;;;7.10;99.90;;;5.63;100.00;102617.53;4892603;28;20191;-81
2022/01/13 08:02:42;;;;;;;44.35;15.35;;;7.20;99.90;;;5.66;100.00;102626.28;4926494;28;20476;-81
2022/01/13 08:05:09;;;;;;;40.60;12.70;;;7.20;99.90;;;5.69;100.00;102609.75;4921263;28;20071;-81
2022/01/13 08:07:42;;;;;;;40.72;14.70;;;7.20;99.90;;;5.69;100.00;102625.41;4897383;28;20027;-81
2022/01/13 08:10:11;;;;;;;49.05;14.55;;;7.20;99.90;;;5.73;100.00;102627.19;4907791;28;21336;-81
2022/01/13 08:12:49;;;;;;;39.67;14.13;;;7.20;99.90;;;5.76;100.00;102633.28;4904867;28;20034;-82
2022/01/13 08:15:15;;;;;;;35.60;11.82;;;7.20;99.90;;;5.74;100.00;102644.59;4922744;28;20115;-81
2022/01/13 08:20:34;;;;;;;38.53;12.43;;;7.30;99.90;;;5.80;100.00;102651.59;4939924;28;20477;-82
2022/01/13 08:23:12;;;;;;;45.95;15.35;;;;;;;5.81;100.00;102643.78;4934310;28;20104;-82
2022/01/13 08:25:38;;;;;;;49.35;13.75;;;7.30;99.90;;;5.84;100.00;102654.22;4980600;28;20150;-82
2022/01/13 08:28:11;;;;;;;50.00;13.65;;;7.30;99.90;;;5.86;100.00;102646.41;4916644;28;20022;-81
2022/01/13 08:30:38;;;;;;;33.90;9.68;;;7.30;99.90;;;5.79;100.00;102642.00;4931171;28;20052;-82
2022/01/13 08:33:05;;;;;;;34.40;11.60;;;7.30;99.90;;;5.81;100.00;102642.88;4939802;28;20101;-82
2022/01/13 08:35:31;;;;;;;52.90;14.98;;;7.30;99.90;;;5.86;100.00;102659.47;4955344;28;20391;-83
2022/01/13 08:38:04;;;;;;;42.42;12.90;;;7.40;99.90;;;5.85;100.00;102656.00;4965274;28;20037;-82
2022/01/13 08:40:32;;;;;;;38.42;11.45;;;7.30;99.90;;;5.87;100.00;102651.63;4953069;28;20553;-82
2022/01/13 08:42:58;;;;;;;43.65;16.05;;;7.40;99.90;;;5.89;100.00;102655.09;4966397;28;20036;-79
2022/01/13 08:45:33;;;;;;;40.85;12.07;;;7.30;99.90;;;5.85;100.00;102648.16;4972196;28;20025;-78
2022/01/13 08:47:59;;;;;;;43.50;14.57;;;7.40;99.90;;;5.87;100.00;102645.53;4956840;28;20392;-78
2022/01/13 08:50:25;;;;;;;37.60;12.50;;;7.40;99.90;;;5.86;100.00;102649.88;4935678;28;20037;-79
2022/01/13 08:52:51;;;;;;;48.17;13.50;;;7.40;99.90;;;5.91;100.00;102666.44;4928411;28;20034;-79
2022/01/13 08:55:19;;;;;;;37.70;13.55;;;7.40;99.90;;;5.93;100.00;102662.09;4937432;28;20023;-79
2022/01/13 08:57:54;;;;;;;31.40;10.98;;;7.40;99.90;;;5.96;100.00;102653.41;4923620;28;20509;-80
2022/01/13 09:00:25;;;;;;;34.83;10.50;;;7.50;99.90;;;6.00;100.00;102649.94;4915498;28;20046;-79
2022/01/13 09:02:52;;;;;;;41.92;13.32;;;7.50;99.90;;;5.95;100.00;102649.94;4985654;28;20029;-78
2022/01/13 09:05:20;;;;;;;37.35;11.85;;;7.50;99.90;;;6.00;100.00;102649.94;4767190;28;4119617;-80
2022/01/13 09:07:46;;;;;;;38.83;10.98;;;7.50;99.90;;;6.03;100.00;102646.50;4924928;28;20037;-78
2022/01/13 09:10:17;;;;;;;31.52;10.05;;;7.50;99.90;;;6.01;100.00;102638.63;4934219;28;20731;-80
2022/01/13 09:12:47;;;;;;;39.35;13.90;;;7.60;99.90;;;6.07;100.00;102646.50;4927358;28;20150;-78
2022/01/13 09:15:32;;;;;;;39.25;13.13;;;7.50;99.90;;;6.11;100.00;102643.03;4959434;28;20536;-79
2022/01/13 09:18:18;;;;;;;42.38;13.07;;;7.60;99.90;;;6.16;100.00;102643.03;4963929;28;20338;-79
2022/01/13 09:20:47;;;;;;;52.67;13.45;;;7.60;99.90;;;6.20;100.00;102643.91;4946485;28;20064;-79
2022/01/13 09:23:16;;;;;;;32.45;10.25;;;7.60;99.90;;;6.13;100.00;102648.25;4952120;28;20037;-79
2022/01/13 09:25:45;;;;;;;49.63;13.85;;;7.60;99.90;;;6.18;100.00;102649.16;4935812;28;20026;-79
2022/01/13 09:28:12;;;;;;;44.70;14.80;;;7.70;99.90;;;6.22;100.00;102655.25;4975728;28;20111;-79
2022/01/13 09:30:39;;;;;;;41.47;14.27;;;7.60;99.90;;;6.21;100.00;102657.00;4973731;28;20014;-78
2022/01/13 09:33:09;;;;;;;42.00;13.63;;;7.60;99.90;;;6.21;100.00;102664.84;4978037;28;20076;-78
2022/01/13 09:35:42;;;;;;;27.75;10.38;;;7.70;99.90;;;6.18;100.00;102670.06;4919625;28;20041;-79
2022/01/13 09:38:08;;;;;;;45.33;15.30;;;7.70;99.90;;;6.23;100.00;102677.94;4942563;28;20159;-79
2022/01/13 09:40:40;;;;;;;32.20;10.35;;;7.70;99.90;;;6.21;100.00;102671.81;4951734;28;25162;-79
2022/01/13 09:43:13;;;;;;;47.13;14.68;;;7.70;99.90;;;6.22;100.00;102682.31;4955910;28;20435;-79
2022/01/13 09:45:40;;;;;;;46.47;14.82;;;7.70;99.90;;;6.26;100.00;102670.94;4966119;28;20494;-79
2022/01/13 09:48:13;;;;;;;51.90;15.05;;;7.70;99.90;;;6.25;100.00;102676.19;4937354;28;20413;-79
2022/01/13 09:50:40;;;;;;;51.38;15.80;;;7.70;99.90;;;6.25;100.00;102684.91;4937505;28;20460;-79
2022/01/13 09:53:07;;;;;;;55.70;14.60;;;7.70;99.90;;;6.26;100.00;102680.53;4948047;28;20537;-80
2022/01/13 09:55:43;;;;;;;37.22;13.30;;;7.70;99.90;;;6.30;100.00;102662.22;4902040;28;20030;-79
2022/01/13 09:58:15;;;;;;;45.08;13.60;;;7.70;99.90;;;6.30;100.00;102657.00;5003253;28;20034;-79
2022/01/13 10:00:45;;;;;;;38.88;13.90;;;7.70;99.90;;;6.29;100.00;102662.25;4937828;28;20055;-79
2022/01/13 10:03:27;;;;;;;34.17;10.23;;;7.70;99.90;;;6.25;100.00;102669.22;4924279;28;20031;-79
2022/01/13 10:06:08;;;;;;;40.75;13.40;;;7.70;99.90;;;6.29;100.00;102663.13;4942537;28;20037;-79
2022/01/13 10:08:49;;;;;;;41.50;13.13;;;7.80;99.90;;;6.32;100.00;102664.88;4925829;28;20498;-78
2022/01/13 10:11:43;;;;;;;39.38;14.32;;;7.80;99.90;;;6.33;100.00;102656.16;4946448;28;20563;-79
2022/01/13 10:17:04;;;;;;;40.53;13.25;;;7.70;99.90;;;6.25;100.00;102663.13;4969156;28;20025;-79
2022/01/13 10:19:42;;;;;;;35.22;12.18;;;7.70;99.90;;;6.28;100.00;102655.25;4964911;28;20117;-79
2022/01/13 10:22:14;;;;;;;47.30;14.57;;;7.70;99.90;;;6.22;100.00;102648.28;4971931;28;20034;-80
2022/01/13 10:25:04;;;;;;;44.30;13.55;;;7.70;99.90;;;6.25;100.00;102629.97;4921750;28;20113;-79
2022/01/13 10:27:42;;;;;;;46.65;14.80;;;7.70;99.90;;;6.28;100.00;102632.59;4944305;28;20076;-80
2022/01/13 10:30:38;;;;;;;44.58;12.43;;;7.70;99.90;;;6.23;100.00;102623.00;4980872;28;20029;-80
2022/01/13 10:33:33;;;;;;;52.95;13.60;;;7.70;99.90;;;6.25;100.00;102626.50;4948024;28;20033;-81
2022/01/13 10:36:13;;;;;;;41.33;13.82;;;7.70;99.90;;;6.27;100.00;102614.28;4962923;28;20033;-82
2022/01/13 10:38:58;;;;;;;55.95;14.70;;;7.70;99.90;;;6.28;100.00;102614.25;4904339;28;20132;-81
2022/01/13 10:42:02;;;;;;;44.15;13.63;;;;;;;6.32;100.00;102623.88;4873761;28;20486;-81
2022/01/13 10:44:28;;;;;;;45.80;12.80;;;7.70;99.90;;;6.29;100.00;102616.03;4976280;28;20110;-81
2022/01/13 10:47:05;;;;;;;38.13;13.57;;;7.80;99.90;;;6.30;100.00;102609.03;4905668;28;20073;-80
2022/01/13 10:50:01;;;;;;;55.78;13.45;;;7.80;99.90;;;6.32;100.00;102613.41;4895512;28;21915;-80
2022/01/13 10:52:33;;;;;;;44.63;13.45;;;7.70;99.90;;;6.31;100.00;102605.56;4925520;28;20056;-81
2022/01/13 10:55:25;;;;;;;38.70;13.20;;;7.70;99.90;;;6.31;100.00;102606.44;4950733;28;20406;-80
2022/01/13 10:57:52;;;;;;;41.67;13.90;;;;;;;6.35;100.00;102621.28;4926041;28;20121;-80
2022/01/13 11:00:33;;;;;;;44.80;13.25;;;7.80;99.90;;;6.31;100.00;102616.03;4944201;28;20531;-81
2022/01/13 11:03:26;;;;;;;47.38;12.65;;;7.80;99.90;;;6.38;100.00;102616.91;4943196;28;20037;-80
2022/01/13 11:06:05;;;;;;;40.25;11.95;;;7.80;99.90;;;6.34;100.00;102616.91;4921946;28;20065;-80
2022/01/13 11:08:46;;;;;;;48.83;13.10;;;7.80;99.90;;;6.34;100.00;102622.13;4946845;28;20037;-81
2022/01/13 11:11:53;;;;;;;40.25;12.40;;;7.80;99.90;;;6.34;100.00;102608.19;4938690;28;20088;-80
2022/01/13 11:14:27;;;;;;;42.78;12.65;;;7.80;99.90;;;6.39;100.00;102598.59;4896602;28;20034;-80
2022/01/13 11:16:58;;;;;;;43.00;12.52;;;7.80;99.90;;;6.42;100.00;102592.50;4892450;28;20038;-80